createdAt,value
2022-09-12T00:01:35.140Z,101249.91
2022-09-12T00:04:05.366Z,101246.50
2022-09-12T00:06:36.938Z,101247.41
2022-09-12T00:09:11.809Z,101212.06
2022-09-12T00:11:43.157Z,101245.66
2022-09-12T00:14:15.947Z,101219.00
2022-09-12T00:16:45.968Z,101246.38
2022-09-12T00:19:15.730Z,101244.66
2022-09-12T00:21:45.416Z,101252.28
2022-09-12T00:24:17.647Z,101236.88
2022-09-12T00:26:47.340Z,101240.19
2022-09-12T00:29:19.480Z,101236.75
2022-09-12T00:31:49.701Z,101240.06
2022-09-12T00:34:19.636Z,101229.75
2022-09-12T00:36:49.245Z,101231.47
2022-09-12T00:39:21.481Z,101228.94
2022-09-12T00:41:51.121Z,101229.69
2022-09-12T00:44:45.789Z,101230.41
2022-09-12T00:47:21.048Z,101228.66
2022-09-12T00:49:55.252Z,101229.47
2022-09-12T00:52:30.489Z,101220.06
2022-09-12T00:55:08.605Z,101223.56
2022-09-12T00:57:43.072Z,101210.72
2022-09-12T01:00:17.436Z,101210.72
2022-09-12T01:02:51.749Z,101204.66
2022-09-12T01:05:23.362Z,101214.13
2022-09-12T01:07:54.331Z,101214.13
2022-09-12T01:10:27.262Z,101205.59
2022-09-12T01:12:56.918Z,101216.78
2022-09-12T01:15:26.576Z,101211.63
2022-09-12T01:18:07.770Z,101211.72
2022-09-12T01:21:08.712Z,101209.84
2022-09-12T01:24:00.590Z,101209.84
2022-09-12T01:26:51.625Z,101204.63
2022-09-12T01:29:44.305Z,101204.59
2022-09-12T01:32:24.571Z,101203.63
2022-09-12T01:35:02.150Z,101198.44
2022-09-12T01:37:35.374Z,101206.97
2022-09-12T01:40:15.959Z,101192.34
2022-09-12T01:42:52.192Z,101202.63
2022-09-12T01:45:28.922Z,101200.88
2022-09-12T01:48:08.754Z,101184.38
2022-09-12T01:50:43.802Z,101196.47
2022-09-12T01:53:19.523Z,101172.34
2022-09-12T01:55:52.819Z,101187.09
2022-09-12T01:58:26.348Z,101192.34
2022-09-12T02:01:02.952Z,101160.50
2022-09-12T02:03:44.759Z,101180.38
2022-09-12T02:06:21.624Z,101173.38
2022-09-12T02:08:55.651Z,101175.94
2022-09-12T02:11:25.370Z,101178.47
2022-09-12T02:13:59.074Z,101169.13
2022-09-12T02:16:34.354Z,101162.19
2022-09-12T02:19:13.187Z,101163.88
2022-09-12T02:21:48.610Z,101171.63
2022-09-12T02:24:21.137Z,101166.44
2022-09-12T02:26:55.665Z,101163.91
2022-09-12T02:29:25.441Z,101163.06
2022-09-12T02:32:00.068Z,101165.63
2022-09-12T02:34:43.930Z,101147.56
2022-09-12T02:37:26.220Z,101175.94
2022-09-12T02:39:57.216Z,101171.59
2022-09-12T02:42:27.356Z,101162.19
2022-09-12T02:44:59.709Z,101162.16
2022-09-12T02:47:33.791Z,101168.97
2022-09-12T02:50:08.153Z,101169.81
2022-09-12T02:52:38.468Z,101171.44
2022-09-12T02:55:11.631Z,101175.66
2022-09-12T02:57:41.450Z,101157.50
2022-09-12T03:00:12.585Z,101183.28
2022-09-12T03:02:56.958Z,101167.94
2022-09-12T03:05:34.382Z,101143.75
2022-09-12T03:08:32.136Z,101162.72
2022-09-12T03:11:34.924Z,101172.03
2022-09-12T03:14:21.732Z,101165.09
2022-09-12T03:16:59.325Z,101164.34
2022-09-12T03:19:41.259Z,101152.41
2022-09-12T03:22:22.742Z,101153.19
2022-09-12T03:24:56.590Z,101154.06
2022-09-12T03:27:32.122Z,101155.81
2022-09-12T03:30:03.158Z,101159.97
2022-09-12T03:32:49.593Z,101159.78
2022-09-12T03:35:23.135Z,101156.28
2022-09-12T03:37:55.977Z,101166.44
2022-09-12T03:40:25.523Z,101167.25
2022-09-12T03:42:55.094Z,101166.38
2022-09-12T03:45:24.673Z,101163.75
2022-09-12T03:47:54.270Z,101147.28
2022-09-12T03:50:23.832Z,101167.81
2022-09-12T03:52:56.165Z,101172.19
2022-09-12T03:55:26.719Z,101161.94
2022-09-12T03:57:56.530Z,101142.16
2022-09-12T04:00:27.344Z,101152.53
2022-09-12T04:02:58.610Z,101162.97
2022-09-12T04:05:28.644Z,101155.31
2022-09-12T04:08:00.725Z,101164.69
2022-09-12T04:10:30.279Z,101159.47
2022-09-12T04:12:59.836Z,101166.28
2022-09-12T04:15:29.370Z,101166.28
2022-09-12T04:18:02.450Z,101162.88
2022-09-12T04:20:34.731Z,101162.06
2022-09-12T04:23:06.813Z,101160.50
2022-09-12T04:25:36.369Z,101159.50
2022-09-12T04:28:05.897Z,101155.19
2022-09-12T04:30:36.574Z,101160.19
2022-09-12T04:33:08.257Z,101157.59
2022-09-12T04:35:38.270Z,101151.59
2022-09-12T04:38:10.422Z,101157.69
2022-09-12T04:40:40.113Z,101153.44
2022-09-12T04:43:14.277Z,101158.50
2022-09-12T04:45:44.253Z,101148.94
2022-09-12T04:48:13.801Z,101165.19
2022-09-12T04:50:43.410Z,101169.44
2022-09-12T04:53:15.498Z,101165.97
2022-09-12T04:55:45.010Z,101152.94
2022-09-12T04:58:14.540Z,101165.03
2022-09-12T05:00:44.070Z,101165.94
2022-09-12T05:03:13.594Z,101166.00
2022-09-12T05:05:43.218Z,101163.47
2022-09-12T05:08:15.455Z,101161.81
2022-09-12T05:10:45.306Z,101164.38
2022-09-12T05:13:15.050Z,101160.13
2022-09-12T05:15:44.693Z,101155.88
2022-09-12T05:18:14.329Z,101171.25
2022-09-12T05:20:44.944Z,101153.34
2022-09-12T05:23:17.157Z,101151.75
2022-09-12T05:25:52.506Z,101149.19
2022-09-12T05:28:22.706Z,101154.34
2022-09-12T05:31:02.978Z,101151.06
2022-09-12T05:33:33.266Z,101150.03
2022-09-12T05:36:03.409Z,101143.31
2022-09-12T05:38:37.542Z,101166.59
2022-09-12T05:41:08.458Z,101152.03
2022-09-12T05:43:38.974Z,101161.59
2022-09-12T05:46:10.944Z,101158.97
2022-09-12T05:48:41.335Z,101163.22
2022-09-12T05:51:13.232Z,101149.47
2022-09-12T05:53:45.676Z,101154.00
2022-09-12T05:56:17.248Z,101154.13
2022-09-12T05:58:49.429Z,101163.59
2022-09-12T06:01:21.642Z,101161.13
2022-09-12T06:03:53.332Z,101143.06
2022-09-12T06:06:25.566Z,101162.88
2022-09-12T06:09:00.516Z,101137.09
2022-09-12T06:11:33.308Z,101158.69
2022-09-12T06:14:03.545Z,101146.66
2022-09-12T06:16:34.953Z,101158.78
2022-09-12T06:19:06.737Z,101149.34
2022-09-12T06:21:38.865Z,101137.34
2022-09-12T06:24:11.350Z,101157.22
2022-09-12T06:26:41.211Z,101153.84
2022-09-12T06:29:11.505Z,101143.78
2022-09-12T06:31:43.231Z,101142.94
2022-09-12T06:34:14.586Z,101140.41
2022-09-12T06:36:46.862Z,101121.50
2022-09-12T06:39:20.617Z,101144.00
2022-09-12T06:41:51.073Z,101142.41
2022-09-12T06:44:23.051Z,101148.56
2022-09-12T06:46:53.978Z,101154.69
2022-09-12T06:49:23.584Z,101145.25
2022-09-12T06:51:53.261Z,101147.91
2022-09-12T06:54:26.551Z,101150.47
2022-09-12T06:56:56.154Z,101142.72
2022-09-12T06:59:25.774Z,101147.94
2022-09-12T07:01:56.229Z,101141.13
2022-09-12T07:04:26.028Z,101143.81
2022-09-12T07:06:55.718Z,101149.88
2022-09-12T07:09:29.710Z,101148.22
2022-09-12T07:11:59.350Z,101152.56
2022-09-12T07:14:29.065Z,101150.03
2022-09-12T07:16:58.820Z,101151.84
2022-09-12T07:19:29.018Z,101132.13
2022-09-12T07:21:58.931Z,101143.34
2022-09-12T07:24:31.188Z,101139.94
2022-09-12T07:27:00.877Z,101139.13
2022-09-12T07:29:37.059Z,101138.28
2022-09-12T07:32:07.686Z,101134.06
2022-09-12T07:34:37.768Z,101136.63
2022-09-12T07:37:07.543Z,101140.94
2022-09-12T07:39:40.540Z,101114.34
2022-09-12T07:42:12.653Z,101137.63
2022-09-12T07:44:42.885Z,101136.81
2022-09-12T07:47:12.578Z,101132.50
2022-09-12T07:49:42.211Z,101133.41
2022-09-12T07:52:11.920Z,101117.06
2022-09-12T07:54:44.501Z,101114.50
2022-09-12T07:57:15.787Z,101125.66
2022-09-12T07:59:53.475Z,101128.25
2022-09-12T08:02:23.327Z,101125.66
2022-09-12T08:04:53.952Z,101119.59
2022-09-12T08:07:24.635Z,101123.03
2022-09-12T08:09:57.047Z,101123.00
2022-09-12T08:12:26.848Z,101139.31
2022-09-12T08:14:56.617Z,101133.22
2022-09-12T08:17:26.396Z,101133.19
2022-09-12T08:19:56.105Z,101136.53
2022-09-12T08:22:26.252Z,101134.78
2022-09-12T08:24:58.701Z,101129.59
2022-09-12T08:27:28.354Z,101136.38
2022-09-12T08:29:58.056Z,101124.31
2022-09-12T08:32:27.898Z,101143.97
2022-09-12T08:34:57.586Z,101121.47
2022-09-12T08:37:28.440Z,101137.63
2022-09-12T08:40:00.833Z,101124.69
2022-09-12T08:42:51.386Z,101127.25
2022-09-12T08:45:25.460Z,101128.03
2022-09-12T08:47:55.849Z,101131.47
2022-09-12T08:50:25.802Z,101117.56
2022-09-12T08:53:03.024Z,101130.44
2022-09-12T08:55:38.436Z,101127.03
2022-09-12T08:58:17.195Z,101131.25
2022-09-12T09:00:58.276Z,101120.91
2022-09-12T09:04:02.333Z,101131.25
2022-09-12T09:06:47.228Z,101126.94
2022-09-12T09:09:23.248Z,101126.88
2022-09-12T09:12:09.365Z,101128.56
2022-09-12T09:14:53.977Z,101130.94
2022-09-12T09:17:28.838Z,101128.38
2022-09-12T09:20:05.036Z,101126.75
2022-09-12T09:22:42.969Z,101122.50
2022-09-12T09:25:23.017Z,101118.19
2022-09-12T09:28:02.305Z,101113.00
2022-09-12T09:30:33.470Z,101099.25
2022-09-12T09:33:06.549Z,101121.50
2022-09-12T09:35:46.397Z,101113.63
2022-09-12T09:38:26.211Z,101120.53
2022-09-12T09:41:09.299Z,101118.66
2022-09-12T09:43:41.976Z,101114.28
2022-09-12T09:46:11.972Z,101111.69
2022-09-12T09:48:46.495Z,101112.50
2022-09-12T09:51:19.239Z,101108.00
2022-09-12T09:53:53.150Z,101112.06
2022-09-12T09:56:33.226Z,101099.91
2022-09-12T09:59:14.918Z,101101.34
2022-09-12T10:01:51.010Z,101096.00
2022-09-12T10:04:22.950Z,101094.13
2022-09-12T10:07:01.189Z,101102.56
2022-09-12T10:09:33.115Z,101095.00
2022-09-12T10:12:22.094Z,101097.34
2022-09-12T10:15:01.156Z,101080.78
2022-09-12T10:17:34.687Z,101081.50
2022-09-12T10:20:20.560Z,101090.13
2022-09-12T10:22:52.300Z,101075.69
2022-09-12T10:25:23.109Z,101068.00
2022-09-12T10:27:57.852Z,101085.91
2022-09-12T10:30:30.906Z,101082.34
2022-09-12T10:33:08.534Z,101085.72
2022-09-12T10:35:48.422Z,101069.34
2022-09-12T10:38:25.043Z,101073.50
2022-09-12T10:41:03.607Z,101074.03
2022-09-12T10:43:38.239Z,101030.28
2022-09-12T10:46:27.294Z,101060.69
2022-09-12T10:49:24.266Z,101051.13
2022-09-12T10:51:54.572Z,101066.81
2022-09-12T10:54:27.226Z,101061.59
2022-09-12T10:57:25.157Z,101054.81
2022-09-12T11:00:10.236Z,101053.81
2022-09-12T11:02:53.377Z,101058.84
2022-09-12T11:05:40.598Z,101018.75
2022-09-12T11:08:20.591Z,101058.66
2022-09-12T11:10:58.150Z,101044.19
2022-09-12T11:13:40.776Z,101044.25
2022-09-12T11:16:24.253Z,101036.19
2022-09-12T11:19:24.032Z,101047.00
2022-09-12T11:22:07.353Z,101045.16
2022-09-12T11:24:58.085Z,101046.63
2022-09-12T11:27:40.112Z,101028.19
2022-09-12T11:30:14.888Z,101029.06
2022-09-12T11:33:08.795Z,101019.44
2022-09-12T11:35:53.041Z,101026.44
2022-09-12T11:38:48.367Z,101027.72
2022-09-12T11:41:23.222Z,101023.63
2022-09-12T11:43:58.296Z,101014.06
2022-09-12T11:46:36.492Z,101021.84
2022-09-12T11:49:16.921Z,101032.03
2022-09-12T11:51:56.319Z,101015.34
2022-09-12T11:54:31.366Z,101011.97
2022-09-12T11:57:08.623Z,101024.00
2022-09-12T11:59:46.879Z,101018.91
2022-09-12T12:02:24.908Z,101009.94
2022-09-12T12:05:20.488Z,101019.88
2022-09-12T12:07:56.012Z,101011.00
2022-09-12T12:10:36.249Z,100996.28
2022-09-12T12:13:13.813Z,101006.69
2022-09-12T12:15:50.075Z,100995.47
2022-09-12T12:18:22.826Z,101004.28
2022-09-12T12:20:54.538Z,100993.88
2022-09-12T12:23:37.909Z,100988.88
2022-09-12T12:26:08.007Z,100998.28
2022-09-12T12:29:05.129Z,100992.53
2022-09-12T12:31:34.840Z,100995.41
2022-09-12T12:34:25.108Z,100985.63
2022-09-12T12:36:54.851Z,100990.91
2022-09-12T12:40:06.165Z,100990.06
2022-09-12T12:43:04.817Z,100991.25
2022-09-12T12:46:05.505Z,100980.91
2022-09-12T12:48:49.213Z,100974.88
2022-09-12T12:51:29.616Z,100969.56
2022-09-12T12:54:00.488Z,100963.50
2022-09-12T12:56:36.100Z,100949.25
2022-09-12T12:59:20.015Z,100973.69
2022-09-12T13:01:55.316Z,100963.47
2022-09-12T13:04:29.693Z,100912.13
2022-09-12T13:07:07.888Z,100953.19
2022-09-12T13:09:46.558Z,100944.72
2022-09-12T13:12:23.656Z,100947.81
2022-09-12T13:14:58.431Z,100952.25
2022-09-12T13:17:33.427Z,100943.56
2022-09-12T13:20:29.194Z,100935.06
2022-09-12T13:23:00.622Z,100925.81
2022-09-12T13:25:33.341Z,100927.84
2022-09-12T13:28:07.802Z,100918.91
2022-09-12T13:30:43.047Z,100892.28
2022-09-12T13:33:21.302Z,100907.63
2022-09-12T13:36:09.899Z,100888.72
2022-09-12T13:38:49.933Z,100898.94
2022-09-12T13:41:47.595Z,100893.53
2022-09-12T13:44:21.560Z,100878.72
2022-09-12T13:46:54.812Z,100891.19
2022-09-12T13:49:35.030Z,100886.25
2022-09-12T13:52:08.744Z,100886.09
2022-09-12T13:54:41.609Z,100878.31
2022-09-12T13:57:31.335Z,100880.41
2022-09-12T14:00:07.615Z,100877.03
2022-09-12T14:02:43.332Z,100879.63
2022-09-12T14:05:20.158Z,100871.66
2022-09-12T14:07:57.187Z,100853.56
2022-09-12T14:10:31.913Z,100868.00
2022-09-12T14:13:03.380Z,100844.22
2022-09-12T14:15:35.272Z,100862.66
2022-09-12T14:18:10.371Z,100856.72
2022-09-12T14:20:42.033Z,100852.88
2022-09-12T14:23:22.243Z,100857.78
2022-09-12T14:25:55.721Z,100848.00
2022-09-12T14:28:27.262Z,100859.84
2022-09-12T14:31:05.439Z,100853.31
2022-09-12T14:33:51.531Z,100854.56
2022-09-12T14:36:26.144Z,100841.25
2022-09-12T14:38:58.434Z,100833.59
2022-09-12T14:41:32.861Z,100833.28
2022-09-12T14:44:05.130Z,100830.16
2022-09-12T14:46:37.639Z,100818.13
2022-09-12T14:49:18.376Z,100833.81
2022-09-12T14:51:57.207Z,100830.31
2022-09-12T14:54:39.522Z,100821.44
2022-09-12T14:57:10.543Z,100811.56
2022-09-12T14:59:42.751Z,100823.75
2022-09-12T15:02:29.757Z,100826.66
2022-09-12T15:05:21.146Z,100820.56
2022-09-12T15:08:04.079Z,100819.69
2022-09-12T15:10:36.941Z,100799.59
2022-09-12T15:13:24.119Z,100809.16
2022-09-12T15:15:55.882Z,100782.28
2022-09-12T15:18:27.928Z,100813.81
2022-09-12T15:21:05.814Z,100785.31
2022-09-12T15:23:40.235Z,100797.06
2022-09-12T15:26:13.832Z,100776.03
2022-09-12T15:28:43.547Z,100737.81
2022-09-12T15:31:18.505Z,100799.13
2022-09-12T15:33:48.330Z,100777.66
2022-09-12T15:36:22.959Z,100791.38
2022-09-12T15:38:53.470Z,100785.50
2022-09-12T15:41:24.712Z,100777.66
2022-09-12T15:43:54.376Z,100776.16
2022-09-12T15:46:24.034Z,100782.03
2022-09-12T15:48:53.783Z,100772.53
2022-09-12T15:51:26.052Z,100775.63
2022-09-12T15:53:55.704Z,100777.00
2022-09-12T15:56:25.745Z,100777.22
2022-09-12T15:58:59.343Z,100780.78
2022-09-12T16:01:30.882Z,100775.03
2022-09-12T16:04:01.000Z,100773.59
2022-09-12T16:06:37.158Z,100773.53
2022-09-12T16:09:07.662Z,100765.03
2022-09-12T16:11:37.592Z,100764.38
2022-09-12T16:14:07.791Z,100767.88
2022-09-12T16:16:37.499Z,100748.44
2022-09-12T16:19:07.653Z,100759.72
2022-09-12T16:21:40.694Z,100764.16
2022-09-12T16:24:10.438Z,100758.31
2022-09-12T16:26:40.228Z,100745.47
2022-09-12T16:29:10.380Z,100744.72
2022-09-12T16:31:40.177Z,100762.19
2022-09-12T16:34:11.028Z,100752.97
2022-09-12T16:36:45.267Z,100749.59
2022-09-12T16:39:14.943Z,100738.59
2022-09-12T16:41:44.818Z,100744.63
2022-09-12T16:44:14.669Z,100732.28
2022-09-12T16:46:44.320Z,100735.94
2022-09-12T16:49:14.317Z,100731.84
2022-09-12T16:51:47.595Z,100722.53
2022-09-12T16:54:18.446Z,100732.78
2022-09-12T16:56:50.046Z,100739.00
2022-09-12T16:59:19.789Z,100736.53
2022-09-12T17:01:49.530Z,100732.88
2022-09-12T17:04:23.321Z,100732.72
2022-09-12T17:06:57.478Z,100711.97
2022-09-12T17:09:28.253Z,100727.38
2022-09-12T17:11:58.915Z,100723.06
2022-09-12T17:14:28.619Z,100712.06
2022-09-12T17:16:59.381Z,100712.13
2022-09-12T17:19:30.742Z,100713.94
2022-09-12T17:22:03.087Z,100712.06
2022-09-12T17:24:33.037Z,100696.06
2022-09-12T17:27:02.678Z,100705.38
2022-09-12T17:29:32.391Z,100692.78
2022-09-12T17:32:02.161Z,100708.34
2022-09-12T17:34:32.006Z,100709.53
2022-09-12T17:37:04.799Z,100707.91
2022-09-12T17:39:34.570Z,100709.91
2022-09-12T17:42:04.658Z,100704.91
2022-09-12T17:44:35.932Z,100686.31
2022-09-12T17:47:08.049Z,100707.72
2022-09-12T17:49:39.444Z,100701.91
2022-09-12T17:52:11.972Z,100701.16
2022-09-12T17:54:41.994Z,100702.25
2022-09-12T17:57:11.699Z,100692.00
2022-09-12T17:59:41.704Z,100697.25
2022-09-12T18:02:15.849Z,100698.13
2022-09-12T18:04:48.472Z,100700.97
2022-09-12T18:07:22.368Z,100700.19
2022-09-12T18:09:53.537Z,100695.19
2022-09-12T18:12:23.482Z,100700.53
2022-09-12T18:14:53.494Z,100702.38
2022-09-12T18:17:23.137Z,100695.63
2022-09-12T18:19:54.059Z,100696.56
2022-09-12T18:22:27.784Z,100695.63
2022-09-12T18:24:57.681Z,100700.06
2022-09-12T18:27:27.409Z,100699.28
2022-09-12T18:30:19.580Z,100688.16
2022-09-12T18:32:48.277Z,100687.44
2022-09-12T18:35:18.625Z,100691.78
2022-09-12T18:37:51.188Z,100687.50
2022-09-12T18:40:21.296Z,100684.19
2022-09-12T18:42:51.495Z,100676.44
2022-09-12T18:45:21.149Z,100680.06
2022-09-12T18:47:50.776Z,100680.19
2022-09-12T18:50:21.009Z,100676.78
2022-09-12T18:52:57.842Z,100675.91
2022-09-12T18:55:29.523Z,100672.66
2022-09-12T18:57:59.145Z,100679.63
2022-09-12T19:00:30.114Z,100670.25
2022-09-12T19:03:00.567Z,100666.94
2022-09-12T19:05:31.425Z,100672.16
2022-09-12T19:08:04.929Z,100649.16
2022-09-12T19:10:34.744Z,100669.78
2022-09-12T19:13:04.685Z,100665.53
2022-09-12T19:15:34.607Z,100668.91
2022-09-12T19:18:04.333Z,100642.38
2022-09-12T19:20:39.202Z,100660.09
2022-09-12T19:23:12.774Z,100651.53
2022-09-12T19:25:42.432Z,100655.91
2022-09-12T19:28:12.080Z,100644.66
2022-09-12T19:30:49.828Z,100639.50
2022-09-12T19:33:20.802Z,100643.81
2022-09-12T19:35:51.048Z,100651.66
2022-09-12T19:38:23.550Z,100646.38
2022-09-12T19:40:59.712Z,100632.56
2022-09-12T19:43:30.642Z,100610.53
2022-09-12T19:46:00.900Z,100623.28
2022-09-12T19:48:31.807Z,100636.50
2022-09-12T19:51:02.392Z,100632.50
2022-09-12T19:53:34.967Z,100623.28
2022-09-12T19:56:06.473Z,100632.91
2022-09-12T19:58:41.299Z,100628.56
2022-09-12T20:01:12.455Z,100608.03
2022-09-12T20:03:43.116Z,100625.19
2022-09-12T20:06:14.766Z,100600.34
2022-09-12T20:08:47.186Z,100606.38
2022-09-12T20:11:19.135Z,100619.41
2022-09-12T20:13:49.372Z,100604.91
2022-09-12T20:16:23.325Z,100601.53
2022-09-12T20:18:59.317Z,100592.28
2022-09-12T20:21:34.185Z,100582.31
2022-09-12T20:24:08.808Z,100606.34
2022-09-12T20:26:38.864Z,100603.88
2022-09-12T20:29:09.589Z,100591.88
2022-09-12T20:31:41.807Z,100595.22
2022-09-12T20:34:17.459Z,100600.34
2022-09-12T20:36:47.148Z,100596.91
2022-09-12T20:39:21.840Z,100588.19
2022-09-12T20:41:52.659Z,100589.00
2022-09-12T20:44:22.972Z,100585.50
2022-09-12T20:46:52.763Z,100579.47
2022-09-12T20:49:23.785Z,100570.00
2022-09-12T20:51:53.497Z,100571.69
2022-09-12T20:54:25.738Z,100559.59
2022-09-12T20:56:55.671Z,100560.53
2022-09-12T20:59:26.308Z,100557.88
2022-09-12T21:01:56.023Z,100557.09
2022-09-12T21:04:26.612Z,100554.56
2022-09-12T21:06:56.268Z,100554.59
2022-09-12T21:09:28.544Z,100539.91
2022-09-12T21:11:58.251Z,100543.44
2022-09-12T21:14:27.964Z,100514.56
2022-09-12T21:16:57.684Z,100532.72
2022-09-12T21:19:27.401Z,100534.44
2022-09-12T21:21:57.191Z,100497.81
2022-09-12T21:24:30.525Z,100519.97
2022-09-12T21:27:04.237Z,100496.16
2022-09-12T21:29:34.538Z,100520.84
2022-09-12T21:32:06.598Z,100498.59
2022-09-12T21:34:41.875Z,100518.31
2022-09-12T21:37:11.525Z,100516.66
2022-09-12T21:39:43.850Z,100516.59
2022-09-12T21:42:13.547Z,100480.03
2022-09-12T21:44:43.119Z,100516.03
2022-09-12T21:47:12.863Z,100503.03
2022-09-12T21:49:43.581Z,100519.19
2022-09-12T21:52:16.458Z,100498.66
2022-09-12T21:54:49.758Z,100491.06
2022-09-12T21:57:19.555Z,100462.88
2022-09-12T21:59:52.587Z,100505.44
2022-09-12T22:02:23.359Z,100499.69
2022-09-12T22:04:53.065Z,100492.78
2022-09-12T22:07:25.217Z,100485.81
2022-09-12T22:09:58.086Z,100488.59
2022-09-12T22:12:29.444Z,100483.47
2022-09-12T22:15:22.802Z,100485.88
2022-09-12T22:17:54.166Z,100492.00
2022-09-12T22:20:23.931Z,100494.56
2022-09-12T22:23:06.143Z,100485.13
2022-09-12T22:25:39.528Z,100491.06
2022-09-12T22:28:09.271Z,100492.78
2022-09-12T22:30:39.148Z,100475.56
2022-09-12T22:33:08.891Z,100486.63
2022-09-12T22:35:39.676Z,100457.50
2022-09-12T22:38:09.294Z,100476.44
2022-09-12T22:40:41.762Z,100465.25
2022-09-12T22:43:11.586Z,100470.41
2022-09-12T22:45:43.522Z,100484.19
2022-09-12T22:48:13.166Z,100470.50
2022-09-12T22:50:42.979Z,100479.00
2022-09-12T22:53:12.585Z,100480.88
2022-09-12T22:55:46.557Z,100464.53
2022-09-12T22:58:16.465Z,100471.41
2022-09-12T23:00:50.367Z,100458.44
2022-09-12T23:03:20.908Z,100423.44
2022-09-12T23:05:51.029Z,100450.75
2022-09-12T23:08:20.683Z,100447.44
2022-09-12T23:10:52.917Z,100442.16
2022-09-12T23:13:22.537Z,100438.72
2022-09-12T23:16:00.166Z,100433.69
2022-09-12T23:18:30.491Z,100443.19
2022-09-12T23:21:01.917Z,100452.56
2022-09-12T23:23:31.887Z,100454.19
2022-09-12T23:26:13.236Z,100448.16
2022-09-12T23:28:43.523Z,100429.38
2022-09-12T23:31:13.190Z,100431.88
2022-09-12T23:33:43.255Z,100438.72
2022-09-12T23:36:14.590Z,100416.41
2022-09-12T23:38:46.082Z,100426.69
2022-09-12T23:41:19.567Z,100423.28
2022-09-12T23:43:49.228Z,100417.50
2022-09-12T23:46:20.513Z,100405.44
2022-09-12T23:48:50.677Z,100430.97
2022-09-12T23:51:21.718Z,100419.00
2022-09-12T23:53:51.723Z,100420.56
2022-09-12T23:56:24.649Z,100431.69
2022-09-12T23:58:54.302Z,100412.03
